sensor_id;sensor_type;location;lat;lon;timestamp;temperature;humidity
14093;DHT22;7123;49.468;10.992;2022-07-01T00:01:45;21.90;99.90
14093;DHT22;7123;49.468;10.992;2022-07-01T00:04:13;21.90;99.90
14093;DHT22;7123;49.468;10.992;2022-07-01T00:06:40;21.90;99.90
14093;DHT22;7123;49.468;10.992;2022-07-01T00:09:07;21.90;99.90
14093;DHT22;7123;49.468;10.992;2022-07-01T00:11:34;21.80;99.90
14093;DHT22;7123;49.468;10.992;2022-07-01T00:14:00;21.80;99.90
14093;DHT22;7123;49.468;10.992;2022-07-01T00:16:27;21.90;99.90
14093;DHT22;7123;49.468;10.992;2022-07-01T00:18:54;21.80;99.90
14093;DHT22;7123;49.468;10.992;2022-07-01T00:21:20;21.70;99.90
14093;DHT22;7123;49.468;10.992;2022-07-01T00:23:47;21.60;99.90
14093;DHT22;7123;49.468;10.992;2022-07-01T00:26:14;21.60;99.90
14093;DHT22;7123;49.468;10.992;2022-07-01T00:28:40;21.60;99.90
14093;DHT22;7123;49.468;10.992;2022-07-01T00:31:07;21.90;99.90
14093;DHT22;7123;49.468;10.992;2022-07-01T00:33:34;21.80;99.90
14093;DHT22;7123;49.468;10.992;2022-07-01T00:36:01;21.90;99.90
14093;DHT22;7123;49.468;10.992;2022-07-01T00:38:28;21.90;99.90
14093;DHT22;7123;49.468;10.992;2022-07-01T00:40:55;21.90;99.90
14093;DHT22;7123;49.468;10.992;2022-07-01T00:43:23;22.00;99.90
14093;DHT22;7123;49.468;10.992;2022-07-01T00:46:11;22.00;99.90
14093;DHT22;7123;49.468;10.992;2022-07-01T00:48:39;22.00;99.90
14093;DHT22;7123;49.468;10.992;2022-07-01T00:51:06;21.90;99.90
14093;DHT22;7123;49.468;10.992;2022-07-01T00:53:34;21.60;99.90
14093;DHT22;7123;49.468;10.992;2022-07-01T00:56:00;21.30;99.90
14093;DHT22;7123;49.468;10.992;2022-07-01T00:58:28;21.10;99.90
14093;DHT22;7123;49.468;10.992;2022-07-01T01:00:56;21.00;99.90
14093;DHT22;7123;49.468;10.992;2022-07-01T01:03:25;20.70;99.90
14093;DHT22;7123;49.468;10.992;2022-07-01T01:05:51;20.60;99.90
14093;DHT22;7123;49.468;10.992;2022-07-01T01:08:21;20.40;99.90
14093;DHT22;7123;49.468;10.992;2022-07-01T01:10:48;20.50;99.90
14093;DHT22;7123;49.468;10.992;2022-07-01T01:13:15;20.40;99.90
14093;DHT22;7123;49.468;10.992;2022-07-01T01:15:42;20.40;99.90
14093;DHT22;7123;49.468;10.992;2022-07-01T01:18:08;20.30;99.90
14093;DHT22;7123;49.468;10.992;2022-07-01T01:20:36;20.40;99.90
14093;DHT22;7123;49.468;10.992;2022-07-01T01:23:03;20.10;99.90
14093;DHT22;7123;49.468;10.992;2022-07-01T01:25:34;19.90;99.90
14093;DHT22;7123;49.468;10.992;2022-07-01T01:28:01;19.70;99.90
14093;DHT22;7123;49.468;10.992;2022-07-01T01:30:28;19.60;99.90
14093;DHT22;7123;49.468;10.992;2022-07-01T01:32:55;19.50;99.90
14093;DHT22;7123;49.468;10.992;2022-07-01T01:35:22;19.40;99.90
14093;DHT22;7123;49.468;10.992;2022-07-01T01:37:49;19.40;99.90
14093;DHT22;7123;49.468;10.992;2022-07-01T01:40:16;19.40;99.90
14093;DHT22;7123;49.468;10.992;2022-07-01T01:42:43;19.40;99.90
14093;DHT22;7123;49.468;10.992;2022-07-01T01:45:11;19.30;99.90
14093;DHT22;7123;49.468;10.992;2022-07-01T01:47:38;19.30;99.90
14093;DHT22;7123;49.468;10.992;2022-07-01T01:50:07;19.30;99.90
14093;DHT22;7123;49.468;10.992;2022-07-01T01:52:34;19.30;99.90
14093;DHT22;7123;49.468;10.992;2022-07-01T01:55:01;19.30;99.90
14093;DHT22;7123;49.468;10.992;2022-07-01T01:57:28;19.30;99.90
14093;DHT22;7123;49.468;10.992;2022-07-01T01:59:55;19.30;99.90
14093;DHT22;7123;49.468;10.992;2022-07-01T02:02:22;19.40;99.90
14093;DHT22;7123;49.468;10.992;2022-07-01T02:04:49;19.50;99.90
14093;DHT22;7123;49.468;10.992;2022-07-01T02:07:16;19.50;99.90
14093;DHT22;7123;49.468;10.992;2022-07-01T02:09:43;19.30;99.90
14093;DHT22;7123;49.468;10.992;2022-07-01T02:12:10;19.30;99.90
14093;DHT22;7123;49.468;10.992;2022-07-01T02:14:37;19.20;99.90
14093;DHT22;7123;49.468;10.992;2022-07-01T02:17:04;19.10;99.90
14093;DHT22;7123;49.468;10.992;2022-07-01T02:19:31;19.00;99.90
14093;DHT22;7123;49.468;10.992;2022-07-01T02:21:58;19.10;99.90
14093;DHT22;7123;49.468;10.992;2022-07-01T02:24:25;19.00;99.90
14093;DHT22;7123;49.468;10.992;2022-07-01T02:26:53;19.00;99.90
14093;DHT22;7123;49.468;10.992;2022-07-01T02:29:20;19.00;99.90
14093;DHT22;7123;49.468;10.992;2022-07-01T02:31:46;19.10;99.90
14093;DHT22;7123;49.468;10.992;2022-07-01T02:34:13;19.20;99.90
14093;DHT22;7123;49.468;10.992;2022-07-01T02:36:40;19.40;99.90
14093;DHT22;7123;49.468;10.992;2022-07-01T02:39:06;19.40;99.90
14093;DHT22;7123;49.468;10.992;2022-07-01T02:41:33;19.30;99.90
14093;DHT22;7123;49.468;10.992;2022-07-01T02:44:20;19.20;99.90
14093;DHT22;7123;49.468;10.992;2022-07-01T02:46:46;19.00;99.90
14093;DHT22;7123;49.468;10.992;2022-07-01T02:49:13;18.80;99.90
14093;DHT22;7123;49.468;10.992;2022-07-01T02:51:41;18.70;99.90
14093;DHT22;7123;49.468;10.992;2022-07-01T02:54:08;18.70;99.90
14093;DHT22;7123;49.468;10.992;2022-07-01T02:56:34;18.80;99.90
14093;DHT22;7123;49.468;10.992;2022-07-01T02:59:01;18.70;99.90
14093;DHT22;7123;49.468;10.992;2022-07-01T03:01:28;18.70;99.90
14093;DHT22;7123;49.468;10.992;2022-07-01T03:03:55;18.80;99.90
14093;DHT22;7123;49.468;10.992;2022-07-01T03:06:22;18.80;99.90
14093;DHT22;7123;49.468;10.992;2022-07-01T03:08:49;18.80;99.90
14093;DHT22;7123;49.468;10.992;2022-07-01T03:11:15;18.80;99.90
14093;DHT22;7123;49.468;10.992;2022-07-01T03:13:42;18.90;99.90
14093;DHT22;7123;49.468;10.992;2022-07-01T03:16:09;18.90;99.90
14093;DHT22;7123;49.468;10.992;2022-07-01T03:18:36;18.80;99.90
14093;DHT22;7123;49.468;10.992;2022-07-01T03:21:02;18.80;99.90
14093;DHT22;7123;49.468;10.992;2022-07-01T03:23:29;18.70;99.90
14093;DHT22;7123;49.468;10.992;2022-07-01T03:25:56;18.70;99.90
14093;DHT22;7123;49.468;10.992;2022-07-01T03:28:22;18.60;99.90
14093;DHT22;7123;49.468;10.992;2022-07-01T03:30:49;18.60;99.90
14093;DHT22;7123;49.468;10.992;2022-07-01T03:33:16;18.50;99.90
14093;DHT22;7123;49.468;10.992;2022-07-01T03:35:43;18.50;99.90
14093;DHT22;7123;49.468;10.992;2022-07-01T03:38:12;18.50;99.90
14093;DHT22;7123;49.468;10.992;2022-07-01T03:40:39;18.40;99.90
14093;DHT22;7123;49.468;10.992;2022-07-01T03:43:06;18.40;99.90
14093;DHT22;7123;49.468;10.992;2022-07-01T03:45:33;18.30;99.90
14093;DHT22;7123;49.468;10.992;2022-07-01T03:47:59;18.20;99.90
14093;DHT22;7123;49.468;10.992;2022-07-01T03:50:26;18.30;99.90
14093;DHT22;7123;49.468;10.992;2022-07-01T03:52:54;18.20;99.90
14093;DHT22;7123;49.468;10.992;2022-07-01T03:55:39;18.00;99.90
14093;DHT22;7123;49.468;10.992;2022-07-01T03:58:06;17.80;99.90
14093;DHT22;7123;49.468;10.992;2022-07-01T04:00:36;17.80;99.90
14093;DHT22;7123;49.468;10.992;2022-07-01T04:03:04;17.70;99.90
14093;DHT22;7123;49.468;10.992;2022-07-01T04:05:35;17.60;99.90
14093;DHT22;7123;49.468;10.992;2022-07-01T04:08:04;17.60;99.90
14093;DHT22;7123;49.468;10.992;2022-07-01T04:10:35;17.70;99.90
14093;DHT22;7123;49.468;10.992;2022-07-01T04:13:02;17.70;99.90
14093;DHT22;7123;49.468;10.992;2022-07-01T04:15:50;17.70;99.90
14093;DHT22;7123;49.468;10.992;2022-07-01T04:18:17;18.00;99.90
14093;DHT22;7123;49.468;10.992;2022-07-01T04:20:43;18.20;99.90
14093;DHT22;7123;49.468;10.992;2022-07-01T04:23:30;17.90;99.90
14093;DHT22;7123;49.468;10.992;2022-07-01T04:25:57;18.00;99.90
14093;DHT22;7123;49.468;10.992;2022-07-01T04:28:43;18.20;99.90
14093;DHT22;7123;49.468;10.992;2022-07-01T04:31:10;18.50;99.90
14093;DHT22;7123;49.468;10.992;2022-07-01T04:33:37;18.70;99.90
14093;DHT22;7123;49.468;10.992;2022-07-01T04:36:03;18.80;99.90
14093;DHT22;7123;49.468;10.992;2022-07-01T04:38:30;18.70;99.90
14093;DHT22;7123;49.468;10.992;2022-07-01T04:40:57;18.60;99.90
14093;DHT22;7123;49.468;10.992;2022-07-01T04:43:42;19.00;99.90
14093;DHT22;7123;49.468;10.992;2022-07-01T04:46:09;19.40;99.90
14093;DHT22;7123;49.468;10.992;2022-07-01T04:48:36;19.40;99.90
14093;DHT22;7123;49.468;10.992;2022-07-01T04:51:03;19.10;99.90
14093;DHT22;7123;49.468;10.992;2022-07-01T04:53:31;18.80;99.90
14093;DHT22;7123;49.468;10.992;2022-07-01T04:55:58;18.50;99.90
14093;DHT22;7123;49.468;10.992;2022-07-01T04:58:24;18.40;99.90
14093;DHT22;7123;49.468;10.992;2022-07-01T05:00:52;18.10;99.90
14093;DHT22;7123;49.468;10.992;2022-07-01T05:03:19;17.90;99.90
14093;DHT22;7123;49.468;10.992;2022-07-01T05:05:46;17.90;99.90
14093;DHT22;7123;49.468;10.992;2022-07-01T05:08:12;17.80;99.90
14093;DHT22;7123;49.468;10.992;2022-07-01T05:10:39;17.60;99.90
14093;DHT22;7123;49.468;10.992;2022-07-01T05:13:06;17.50;99.90
14093;DHT22;7123;49.468;10.992;2022-07-01T05:15:33;17.40;99.90
14093;DHT22;7123;49.468;10.992;2022-07-01T05:18:00;17.30;99.90
14093;DHT22;7123;49.468;10.992;2022-07-01T05:20:45;17.30;99.90
14093;DHT22;7123;49.468;10.992;2022-07-01T05:23:36;17.30;99.90
14093;DHT22;7123;49.468;10.992;2022-07-01T05:26:03;17.40;99.90
14093;DHT22;7123;49.468;10.992;2022-07-01T05:28:29;17.40;99.90
14093;DHT22;7123;49.468;10.992;2022-07-01T05:30:56;17.50;99.90
14093;DHT22;7123;49.468;10.992;2022-07-01T05:33:23;17.50;99.90
14093;DHT22;7123;49.468;10.992;2022-07-01T05:35:53;17.40;99.90
14093;DHT22;7123;49.468;10.992;2022-07-01T05:38:20;17.40;99.90
14093;DHT22;7123;49.468;10.992;2022-07-01T05:40:47;17.20;99.90
14093;DHT22;7123;49.468;10.992;2022-07-01T05:43:14;17.00;99.90
14093;DHT22;7123;49.468;10.992;2022-07-01T05:45:40;17.00;99.90
14093;DHT22;7123;49.468;10.992;2022-07-01T05:48:07;16.90;99.90
14093;DHT22;7123;49.468;10.992;2022-07-01T05:50:34;16.80;99.90
14093;DHT22;7123;49.468;10.992;2022-07-01T05:53:01;16.50;99.90
14093;DHT22;7123;49.468;10.992;2022-07-01T05:55:27;16.50;99.90
14093;DHT22;7123;49.468;10.992;2022-07-01T05:57:54;16.40;99.90
14093;DHT22;7123;49.468;10.992;2022-07-01T06:00:21;16.30;99.90
14093;DHT22;7123;49.468;10.992;2022-07-01T06:02:47;16.20;99.90
14093;DHT22;7123;49.468;10.992;2022-07-01T06:05:14;16.20;99.90
14093;DHT22;7123;49.468;10.992;2022-07-01T06:07:41;16.20;99.90
14093;DHT22;7123;49.468;10.992;2022-07-01T06:10:08;16.30;99.90
14093;DHT22;7123;49.468;10.992;2022-07-01T06:12:40;16.30;99.90
14093;DHT22;7123;49.468;10.992;2022-07-01T06:15:09;16.40;99.90
14093;DHT22;7123;49.468;10.992;2022-07-01T06:17:37;16.40;99.90
14093;DHT22;7123;49.468;10.992;2022-07-01T06:20:04;16.40;99.90
14093;DHT22;7123;49.468;10.992;2022-07-01T06:22:32;16.40;99.90
14093;DHT22;7123;49.468;10.992;2022-07-01T06:25:00;16.50;99.90
14093;DHT22;7123;49.468;10.992;2022-07-01T06:27:27;16.60;99.90
14093;DHT22;7123;49.468;10.992;2022-07-01T06:29:54;16.70;99.90
14093;DHT22;7123;49.468;10.992;2022-07-01T06:32:21;16.80;99.90
14093;DHT22;7123;49.468;10.992;2022-07-01T06:34:47;16.80;99.90
14093;DHT22;7123;49.468;10.992;2022-07-01T06:37:18;16.90;99.90
14093;DHT22;7123;49.468;10.992;2022-07-01T06:39:46;16.80;99.90
14093;DHT22;7123;49.468;10.992;2022-07-01T06:42:13;16.80;99.90
14093;DHT22;7123;49.468;10.992;2022-07-01T06:44:40;16.80;99.90
14093;DHT22;7123;49.468;10.992;2022-07-01T06:47:07;16.80;99.90
14093;DHT22;7123;49.468;10.992;2022-07-01T06:49:34;16.70;99.90
14093;DHT22;7123;49.468;10.992;2022-07-01T06:52:01;16.70;99.90
14093;DHT22;7123;49.468;10.992;2022-07-01T06:54:28;16.80;99.90
14093;DHT22;7123;49.468;10.992;2022-07-01T06:56:55;16.70;99.90
14093;DHT22;7123;49.468;10.992;2022-07-01T06:59:21;16.60;99.90
14093;DHT22;7123;49.468;10.992;2022-07-01T07:01:48;16.50;99.90
14093;DHT22;7123;49.468;10.992;2022-07-01T07:04:16;16.50;99.90
14093;DHT22;7123;49.468;10.992;2022-07-01T07:06:49;16.50;99.90
14093;DHT22;7123;49.468;10.992;2022-07-01T07:09:16;16.30;99.90
14093;DHT22;7123;49.468;10.992;2022-07-01T07:11:43;16.30;99.90
14093;DHT22;7123;49.468;10.992;2022-07-01T07:14:09;16.30;99.90
14093;DHT22;7123;49.468;10.992;2022-07-01T07:16:36;16.30;99.90
14093;DHT22;7123;49.468;10.992;2022-07-01T07:19:03;16.40;99.90
14093;DHT22;7123;49.468;10.992;2022-07-01T07:21:30;16.40;99.90
14093;DHT22;7123;49.468;10.992;2022-07-01T07:23:56;16.30;99.90
14093;DHT22;7123;49.468;10.992;2022-07-01T07:26:23;16.30;99.90
14093;DHT22;7123;49.468;10.992;2022-07-01T07:28:51;16.10;99.90
14093;DHT22;7123;49.468;10.992;2022-07-01T07:31:17;16.00;99.90
14093;DHT22;7123;49.468;10.992;2022-07-01T07:33:44;15.80;99.90
14093;DHT22;7123;49.468;10.992;2022-07-01T07:36:11;15.80;99.90
14093;DHT22;7123;49.468;10.992;2022-07-01T07:38:38;15.70;99.90
14093;DHT22;7123;49.468;10.992;2022-07-01T07:41:05;15.70;99.90
14093;DHT22;7123;49.468;10.992;2022-07-01T07:43:32;15.70;99.90
14093;DHT22;7123;49.468;10.992;2022-07-01T07:45:58;15.70;99.90
14093;DHT22;7123;49.468;10.992;2022-07-01T07:48:25;15.80;99.90
14093;DHT22;7123;49.468;10.992;2022-07-01T07:50:52;15.80;99.90
14093;DHT22;7123;49.468;10.992;2022-07-01T07:53:19;15.80;99.90
14093;DHT22;7123;49.468;10.992;2022-07-01T07:55:46;15.90;99.90
14093;DHT22;7123;49.468;10.992;2022-07-01T07:58:12;15.90;99.90
14093;DHT22;7123;49.468;10.992;2022-07-01T08:00:39;16.00;99.90
14093;DHT22;7123;49.468;10.992;2022-07-01T08:03:06;16.00;99.90
14093;DHT22;7123;49.468;10.992;2022-07-01T08:05:33;16.10;99.90
14093;DHT22;7123;49.468;10.992;2022-07-01T08:08:00;16.10;99.90
14093;DHT22;7123;49.468;10.992;2022-07-01T08:10:26;16.20;99.90
14093;DHT22;7123;49.468;10.992;2022-07-01T08:12:53;16.10;99.90
14093;DHT22;7123;49.468;10.992;2022-07-01T08:15:19;16.10;99.90
14093;DHT22;7123;49.468;10.992;2022-07-01T08:17:46;16.00;99.90
14093;DHT22;7123;49.468;10.992;2022-07-01T08:20:14;16.00;99.90
14093;DHT22;7123;49.468;10.992;2022-07-01T08:22:48;15.90;99.90
14093;DHT22;7123;49.468;10.992;2022-07-01T08:25:15;16.00;99.90
14093;DHT22;7123;49.468;10.992;2022-07-01T08:27:42;16.00;99.90
14093;DHT22;7123;49.468;10.992;2022-07-01T08:30:10;16.00;99.90
14093;DHT22;7123;49.468;10.992;2022-07-01T08:32:37;16.00;99.90
14093;DHT22;7123;49.468;10.992;2022-07-01T08:35:04;16.00;99.90
14093;DHT22;7123;49.468;10.992;2022-07-01T08:37:31;16.00;99.90
14093;DHT22;7123;49.468;10.992;2022-07-01T08:39:58;16.00;99.90
14093;DHT22;7123;49.468;10.992;2022-07-01T08:42:25;16.00;99.90
14093;DHT22;7123;49.468;10.992;2022-07-01T08:44:52;16.00;99.90
14093;DHT22;7123;49.468;10.992;2022-07-01T08:47:19;16.00;99.90
14093;DHT22;7123;49.468;10.992;2022-07-01T08:49:46;16.00;99.90
14093;DHT22;7123;49.468;10.992;2022-07-01T08:52:12;16.10;99.90
14093;DHT22;7123;49.468;10.992;2022-07-01T08:54:39;16.10;99.90
14093;DHT22;7123;49.468;10.992;2022-07-01T08:57:07;16.10;99.90
14093;DHT22;7123;49.468;10.992;2022-07-01T08:59:34;16.10;99.90
14093;DHT22;7123;49.468;10.992;2022-07-01T09:02:04;16.10;99.90
14093;DHT22;7123;49.468;10.992;2022-07-01T09:04:32;16.10;99.90
14093;DHT22;7123;49.468;10.992;2022-07-01T09:07:08;16.00;99.90
14093;DHT22;7123;49.468;10.992;2022-07-01T09:09:37;15.90;99.90
14093;DHT22;7123;49.468;10.992;2022-07-01T09:12:05;15.80;99.90
14093;DHT22;7123;49.468;10.992;2022-07-01T09:14:34;15.80;99.90
14093;DHT22;7123;49.468;10.992;2022-07-01T09:17:04;15.90;99.90
14093;DHT22;7123;49.468;10.992;2022-07-01T09:19:36;16.00;99.90
14093;DHT22;7123;49.468;10.992;2022-07-01T09:22:10;16.10;99.90
14093;DHT22;7123;49.468;10.992;2022-07-01T09:24:41;16.00;99.90
14093;DHT22;7123;49.468;10.992;2022-07-01T09:27:14;16.10;99.90
14093;DHT22;7123;49.468;10.992;2022-07-01T09:29:50;16.10;99.90
14093;DHT22;7123;49.468;10.992;2022-07-01T09:32:19;16.10;99.90
14093;DHT22;7123;49.468;10.992;2022-07-01T09:34:49;16.10;99.90
14093;DHT22;7123;49.468;10.992;2022-07-01T09:37:17;16.30;99.90
14093;DHT22;7123;49.468;10.992;2022-07-01T09:39:45;16.40;99.90
14093;DHT22;7123;49.468;10.992;2022-07-01T09:42:12;16.30;99.90
14093;DHT22;7123;49.468;10.992;2022-07-01T09:47:22;16.20;99.90
14093;DHT22;7123;49.468;10.992;2022-07-01T09:49:50;16.10;99.90
14093;DHT22;7123;49.468;10.992;2022-07-01T09:52:17;16.20;99.90
14093;DHT22;7123;49.468;10.992;2022-07-01T09:54:48;16.30;99.90
14093;DHT22;7123;49.468;10.992;2022-07-01T09:57:16;16.30;99.90
14093;DHT22;7123;49.468;10.992;2022-07-01T09:59:44;16.20;99.90
14093;DHT22;7123;49.468;10.992;2022-07-01T10:02:11;16.30;99.90
14093;DHT22;7123;49.468;10.992;2022-07-01T10:04:53;16.30;99.90
14093;DHT22;7123;49.468;10.992;2022-07-01T10:10:44;16.40;99.90
14093;DHT22;7123;49.468;10.992;2022-07-01T10:13:14;16.40;99.90
14093;DHT22;7123;49.468;10.992;2022-07-01T10:15:43;16.40;99.90
14093;DHT22;7123;49.468;10.992;2022-07-01T10:18:21;16.50;99.90
14093;DHT22;7123;49.468;10.992;2022-07-01T10:20:49;16.60;99.90
14093;DHT22;7123;49.468;10.992;2022-07-01T10:23:16;16.60;99.90
14093;DHT22;7123;49.468;10.992;2022-07-01T10:25:50;16.50;99.90
14093;DHT22;7123;49.468;10.992;2022-07-01T10:36:33;16.50;99.90
14093;DHT22;7123;49.468;10.992;2022-07-01T10:41:29;16.50;99.90
14093;DHT22;7123;49.468;10.992;2022-07-01T10:43:57;16.50;99.90
14093;DHT22;7123;49.468;10.992;2022-07-01T10:46:43;16.40;99.90
14093;DHT22;7123;49.468;10.992;2022-07-01T10:49:17;16.30;99.90
14093;DHT22;7123;49.468;10.992;2022-07-01T10:54:55;16.10;99.90
14093;DHT22;7123;49.468;10.992;2022-07-01T10:57:36;15.90;99.90
14093;DHT22;7123;49.468;10.992;2022-07-01T11:02:34;15.60;99.90
14093;DHT22;7123;49.468;10.992;2022-07-01T11:07:41;15.50;99.90
14093;DHT22;7123;49.468;10.992;2022-07-01T11:10:15;15.60;99.90
14093;DHT22;7123;49.468;10.992;2022-07-01T11:12:43;15.60;99.90
14093;DHT22;7123;49.468;10.992;2022-07-01T11:15:15;15.60;99.90
14093;DHT22;7123;49.468;10.992;2022-07-01T11:17:47;15.60;99.90
14093;DHT22;7123;49.468;10.992;2022-07-01T11:20:14;15.60;99.90
14093;DHT22;7123;49.468;10.992;2022-07-01T11:22:48;15.70;99.90
14093;DHT22;7123;49.468;10.992;2022-07-01T11:25:14;15.80;99.90
14093;DHT22;7123;49.468;10.992;2022-07-01T11:27:49;15.70;99.90
14093;DHT22;7123;49.468;10.992;2022-07-01T11:30:17;15.60;99.90
14093;DHT22;7123;49.468;10.992;2022-07-01T11:32:55;15.60;99.90
14093;DHT22;7123;49.468;10.992;2022-07-01T11:35:29;15.70;99.90
14093;DHT22;7123;49.468;10.992;2022-07-01T11:38:23;15.80;99.90
14093;DHT22;7123;49.468;10.992;2022-07-01T11:41:17;15.90;99.90
14093;DHT22;7123;49.468;10.992;2022-07-01T11:43:44;15.80;99.90
14093;DHT22;7123;49.468;10.992;2022-07-01T11:46:11;15.70;99.90
14093;DHT22;7123;49.468;10.992;2022-07-01T11:48:40;15.70;99.90
14093;DHT22;7123;49.468;10.992;2022-07-01T11:51:10;15.70;99.90
14093;DHT22;7123;49.468;10.992;2022-07-01T11:53:41;15.60;99.90
14093;DHT22;7123;49.468;10.992;2022-07-01T11:56:08;15.70;99.90
14093;DHT22;7123;49.468;10.992;2022-07-01T11:58:50;15.60;99.90
14093;DHT22;7123;49.468;10.992;2022-07-01T12:01:34;15.50;99.90
14093;DHT22;7123;49.468;10.992;2022-07-01T12:04:06;15.60;99.90
14093;DHT22;7123;49.468;10.992;2022-07-01T12:06:35;15.70;99.90
14093;DHT22;7123;49.468;10.992;2022-07-01T12:09:04;15.70;99.90
14093;DHT22;7123;49.468;10.992;2022-07-01T12:11:31;15.60;99.90
14093;DHT22;7123;49.468;10.992;2022-07-01T12:14:04;15.60;99.90
14093;DHT22;7123;49.468;10.992;2022-07-01T12:16:41;15.50;99.90
14093;DHT22;7123;49.468;10.992;2022-07-01T12:19:08;15.60;99.90
14093;DHT22;7123;49.468;10.992;2022-07-01T12:21:53;15.70;99.90
14093;DHT22;7123;49.468;10.992;2022-07-01T12:24:21;15.70;99.90
14093;DHT22;7123;49.468;10.992;2022-07-01T12:32:23;15.80;99.90
14093;DHT22;7123;49.468;10.992;2022-07-01T12:34:56;15.70;99.90
14093;DHT22;7123;49.468;10.992;2022-07-01T12:37:35;15.70;99.90
14093;DHT22;7123;49.468;10.992;2022-07-01T12:40:04;15.60;99.90
14093;DHT22;7123;49.468;10.992;2022-07-01T12:42:42;15.70;99.90
14093;DHT22;7123;49.468;10.992;2022-07-01T12:45:11;15.60;99.90
14093;DHT22;7123;49.468;10.992;2022-07-01T12:47:44;15.60;99.90
14093;DHT22;7123;49.468;10.992;2022-07-01T12:50:22;15.70;99.90
14093;DHT22;7123;49.468;10.992;2022-07-01T12:53:09;15.70;99.90
14093;DHT22;7123;49.468;10.992;2022-07-01T12:55:43;15.70;99.90
14093;DHT22;7123;49.468;10.992;2022-07-01T12:58:13;15.70;99.90
14093;DHT22;7123;49.468;10.992;2022-07-01T13:00:44;15.50;99.90
14093;DHT22;7123;49.468;10.992;2022-07-01T13:03:11;15.30;99.90
14093;DHT22;7123;49.468;10.992;2022-07-01T13:05:39;15.00;99.90
14093;DHT22;7123;49.468;10.992;2022-07-01T13:08:07;15.00;99.90
14093;DHT22;7123;49.468;10.992;2022-07-01T13:10:38;15.00;99.90
14093;DHT22;7123;49.468;10.992;2022-07-01T13:13:04;14.90;99.90
14093;DHT22;7123;49.468;10.992;2022-07-01T13:15:32;14.90;99.90
14093;DHT22;7123;49.468;10.992;2022-07-01T13:17:59;15.00;99.90
14093;DHT22;7123;49.468;10.992;2022-07-01T13:20:27;15.10;99.90
14093;DHT22;7123;49.468;10.992;2022-07-01T13:22:53;15.00;99.90
14093;DHT22;7123;49.468;10.992;2022-07-01T13:25:20;14.90;99.90
14093;DHT22;7123;49.468;10.992;2022-07-01T13:27:48;15.10;99.90
14093;DHT22;7123;49.468;10.992;2022-07-01T13:30:15;15.10;99.90
14093;DHT22;7123;49.468;10.992;2022-07-01T13:32:42;15.20;99.90
14093;DHT22;7123;49.468;10.992;2022-07-01T13:35:11;15.20;99.90
14093;DHT22;7123;49.468;10.992;2022-07-01T13:37:39;15.30;99.90
14093;DHT22;7123;49.468;10.992;2022-07-01T13:40:07;15.20;99.90
14093;DHT22;7123;49.468;10.992;2022-07-01T13:42:34;15.20;99.90
14093;DHT22;7123;49.468;10.992;2022-07-01T13:45:01;15.30;99.90
14093;DHT22;7123;49.468;10.992;2022-07-01T13:47:27;15.50;99.90
14093;DHT22;7123;49.468;10.992;2022-07-01T13:49:54;15.80;99.90
14093;DHT22;7123;49.468;10.992;2022-07-01T13:52:21;15.80;99.90
14093;DHT22;7123;49.468;10.992;2022-07-01T13:54:48;15.80;99.90
14093;DHT22;7123;49.468;10.992;2022-07-01T13:57:16;15.70;99.90
14093;DHT22;7123;49.468;10.992;2022-07-01T13:59:43;15.80;99.90
14093;DHT22;7123;49.468;10.992;2022-07-01T14:02:10;15.90;99.90
14093;DHT22;7123;49.468;10.992;2022-07-01T14:04:37;15.90;99.90
14093;DHT22;7123;49.468;10.992;2022-07-01T14:07:05;16.00;99.90
14093;DHT22;7123;49.468;10.992;2022-07-01T14:09:33;16.00;99.90
14093;DHT22;7123;49.468;10.992;2022-07-01T14:12:00;16.00;99.90
14093;DHT22;7123;49.468;10.992;2022-07-01T14:14:29;16.20;99.90
14093;DHT22;7123;49.468;10.992;2022-07-01T14:16:56;16.20;99.90
14093;DHT22;7123;49.468;10.992;2022-07-01T14:19:23;16.20;99.90
14093;DHT22;7123;49.468;10.992;2022-07-01T14:21:50;16.20;99.90
14093;DHT22;7123;49.468;10.992;2022-07-01T14:24:17;16.30;99.90
14093;DHT22;7123;49.468;10.992;2022-07-01T14:26:43;16.60;99.90
14093;DHT22;7123;49.468;10.992;2022-07-01T14:29:10;16.80;99.90
14093;DHT22;7123;49.468;10.992;2022-07-01T14:31:37;16.80;99.90
14093;DHT22;7123;49.468;10.992;2022-07-01T14:34:04;16.60;99.90
14093;DHT22;7123;49.468;10.992;2022-07-01T14:36:31;16.40;99.90
14093;DHT22;7123;49.468;10.992;2022-07-01T14:38:57;16.20;99.90
14093;DHT22;7123;49.468;10.992;2022-07-01T14:41:25;16.20;99.90
14093;DHT22;7123;49.468;10.992;2022-07-01T14:43:52;16.10;99.90
14093;DHT22;7123;49.468;10.992;2022-07-01T14:46:19;16.10;99.90
14093;DHT22;7123;49.468;10.992;2022-07-01T14:48:45;16.30;99.90
14093;DHT22;7123;49.468;10.992;2022-07-01T14:51:12;16.60;99.90
14093;DHT22;7123;49.468;10.992;2022-07-01T14:53:39;16.60;99.90
14093;DHT22;7123;49.468;10.992;2022-07-01T14:56:11;16.50;99.90
14093;DHT22;7123;49.468;10.992;2022-07-01T14:58:37;16.40;99.90
14093;DHT22;7123;49.468;10.992;2022-07-01T15:01:04;16.40;99.90
14093;DHT22;7123;49.468;10.992;2022-07-01T15:03:31;16.30;99.90
14093;DHT22;7123;49.468;10.992;2022-07-01T15:05:58;16.40;99.90
14093;DHT22;7123;49.468;10.992;2022-07-01T15:08:24;16.40;99.90
14093;DHT22;7123;49.468;10.992;2022-07-01T15:10:51;16.60;99.90
14093;DHT22;7123;49.468;10.992;2022-07-01T15:13:18;16.80;99.90
14093;DHT22;7123;49.468;10.992;2022-07-01T15:15:44;17.10;99.90
14093;DHT22;7123;49.468;10.992;2022-07-01T15:18:11;17.60;99.90
14093;DHT22;7123;49.468;10.992;2022-07-01T15:20:38;18.10;99.90
14093;DHT22;7123;49.468;10.992;2022-07-01T15:23:05;18.40;99.90
14093;DHT22;7123;49.468;10.992;2022-07-01T15:25:31;18.70;99.90
14093;DHT22;7123;49.468;10.992;2022-07-01T15:27:58;18.70;99.90
14093;DHT22;7123;49.468;10.992;2022-07-01T15:30:25;18.70;99.90
14093;DHT22;7123;49.468;10.992;2022-07-01T15:32:52;19.00;99.90
14093;DHT22;7123;49.468;10.992;2022-07-01T15:35:21;19.20;99.90
14093;DHT22;7123;49.468;10.992;2022-07-01T15:37:48;19.40;99.90
14093;DHT22;7123;49.468;10.992;2022-07-01T15:40:15;19.70;99.90
14093;DHT22;7123;49.468;10.992;2022-07-01T15:42:41;20.00;99.90
14093;DHT22;7123;49.468;10.992;2022-07-01T15:45:08;20.50;99.90
14093;DHT22;7123;49.468;10.992;2022-07-01T15:47:35;20.90;99.90
14093;DHT22;7123;49.468;10.992;2022-07-01T15:50:21;20.90;99.90
14093;DHT22;7123;49.468;10.992;2022-07-01T15:52:50;21.00;99.90
14093;DHT22;7123;49.468;10.992;2022-07-01T15:55:17;21.10;99.90
14093;DHT22;7123;49.468;10.992;2022-07-01T15:57:47;20.70;99.90
14093;DHT22;7123;49.468;10.992;2022-07-01T16:00:21;20.60;99.90
14093;DHT22;7123;49.468;10.992;2022-07-01T16:02:48;20.10;99.90
14093;DHT22;7123;49.468;10.992;2022-07-01T16:05:15;19.80;99.90
14093;DHT22;7123;49.468;10.992;2022-07-01T16:07:43;19.80;99.90
14093;DHT22;7123;49.468;10.992;2022-07-01T16:12:49;20.00;99.90